sensor_id;sensor_type;location;lat;lon;timestamp;P1;durP1;ratioP1;P2;durP2;ratioP2
18822;SDS011;9540;51.550;7.980;2023-03-14T00:00:29;6.70;;;1.90;;
18822;SDS011;9540;51.550;7.980;2023-03-14T00:02:56;4.57;;;1.35;;
18822;SDS011;9540;51.550;7.980;2023-03-14T00:05:23;7.10;;;1.85;;
18822;SDS011;9540;51.550;7.980;2023-03-14T00:07:50;3.67;;;1.75;;
18822;SDS011;9540;51.550;7.980;2023-03-14T00:10:17;2.78;;;1.65;;
18822;SDS011;9540;51.550;7.980;2023-03-14T00:12:45;4.35;;;1.83;;
18822;SDS011;9540;51.550;7.980;2023-03-14T00:15:13;7.45;;;2.42;;
18822;SDS011;9540;51.550;7.980;2023-03-14T00:17:42;5.60;;;1.80;;
18822;SDS011;9540;51.550;7.980;2023-03-14T00:20:10;6.38;;;2.08;;
18822;SDS011;9540;51.550;7.980;2023-03-14T00:22:39;4.60;;;1.20;;
18822;SDS011;9540;51.550;7.980;2023-03-14T00:25:07;4.85;;;1.60;;
18822;SDS011;9540;51.550;7.980;2023-03-14T00:27:36;8.27;;;1.83;;
18822;SDS011;9540;51.550;7.980;2023-03-14T00:30:04;4.05;;;1.80;;
18822;SDS011;9540;51.550;7.980;2023-03-14T00:32:34;3.35;;;1.70;;
18822;SDS011;9540;51.550;7.980;2023-03-14T00:35:02;8.02;;;1.42;;
18822;SDS011;9540;51.550;7.980;2023-03-14T00:37:29;3.60;;;1.65;;
18822;SDS011;9540;51.550;7.980;2023-03-14T00:39:56;4.97;;;1.52;;
18822;SDS011;9540;51.550;7.980;2023-03-14T00:42:24;5.50;;;1.73;;
18822;SDS011;9540;51.550;7.980;2023-03-14T00:44:51;6.57;;;1.80;;
18822;SDS011;9540;51.550;7.980;2023-03-14T00:47:18;10.02;;;1.88;;
18822;SDS011;9540;51.550;7.980;2023-03-14T00:49:47;8.50;;;1.63;;
18822;SDS011;9540;51.550;7.980;2023-03-14T00:52:14;5.05;;;1.50;;
18822;SDS011;9540;51.550;7.980;2023-03-14T00:54:41;5.28;;;1.67;;
18822;SDS011;9540;51.550;7.980;2023-03-14T00:57:08;6.47;;;1.58;;
18822;SDS011;9540;51.550;7.980;2023-03-14T00:59:35;6.03;;;1.70;;
18822;SDS011;9540;51.550;7.980;2023-03-14T01:02:02;2.53;;;1.33;;
18822;SDS011;9540;51.550;7.980;2023-03-14T01:04:29;7.43;;;2.13;;
18822;SDS011;9540;51.550;7.980;2023-03-14T01:06:58;4.63;;;1.40;;
18822;SDS011;9540;51.550;7.980;2023-03-14T01:09:25;5.25;;;1.35;;
18822;SDS011;9540;51.550;7.980;2023-03-14T01:11:52;3.40;;;1.52;;
18822;SDS011;9540;51.550;7.980;2023-03-14T01:14:20;4.97;;;1.48;;
18822;SDS011;9540;51.550;7.980;2023-03-14T01:16:47;5.28;;;1.75;;
18822;SDS011;9540;51.550;7.980;2023-03-14T01:19:14;6.22;;;1.65;;
18822;SDS011;9540;51.550;7.980;2023-03-14T01:21:41;5.68;;;1.77;;
18822;SDS011;9540;51.550;7.980;2023-03-14T01:24:11;4.47;;;2.78;;
18822;SDS011;9540;51.550;7.980;2023-03-14T01:26:38;5.57;;;1.92;;
18822;SDS011;9540;51.550;7.980;2023-03-14T01:29:05;2.38;;;1.48;;
18822;SDS011;9540;51.550;7.980;2023-03-14T01:31:32;3.40;;;1.33;;
18822;SDS011;9540;51.550;7.980;2023-03-14T01:33:59;6.00;;;1.88;;
18822;SDS011;9540;51.550;7.980;2023-03-14T01:36:26;8.90;;;1.67;;
18822;SDS011;9540;51.550;7.980;2023-03-14T01:38:54;9.38;;;1.70;;
18822;SDS011;9540;51.550;7.980;2023-03-14T01:41:23;4.40;;;1.85;;
18822;SDS011;9540;51.550;7.980;2023-03-14T01:43:51;7.05;;;1.67;;
18822;SDS011;9540;51.550;7.980;2023-03-14T01:46:20;6.18;;;1.55;;
18822;SDS011;9540;51.550;7.980;2023-03-14T01:51:49;5.82;;;1.55;;
18822;SDS011;9540;51.550;7.980;2023-03-14T01:54:20;7.72;;;1.60;;
18822;SDS011;9540;51.550;7.980;2023-03-14T01:56:52;5.05;;;1.52;;
18822;SDS011;9540;51.550;7.980;2023-03-14T01:59:22;8.68;;;2.40;;
18822;SDS011;9540;51.550;7.980;2023-03-14T02:01:50;8.70;;;1.92;;
18822;SDS011;9540;51.550;7.980;2023-03-14T02:04:18;4.07;;;1.02;;
18822;SDS011;9540;51.550;7.980;2023-03-14T02:06:48;1.33;;;0.70;;
18822;SDS011;9540;51.550;7.980;2023-03-14T02:09:19;2.42;;;1.08;;
18822;SDS011;9540;51.550;7.980;2023-03-14T02:11:47;3.13;;;1.40;;
18822;SDS011;9540;51.550;7.980;2023-03-14T02:14:19;4.32;;;1.00;;
18822;SDS011;9540;51.550;7.980;2023-03-14T02:16:53;5.13;;;1.20;;
18822;SDS011;9540;51.550;7.980;2023-03-14T02:19:21;2.35;;;1.30;;
18822;SDS011;9540;51.550;7.980;2023-03-14T02:21:56;0.80;;;0.80;;
18822;SDS011;9540;51.550;7.980;2023-03-14T02:24:31;2.40;;;1.17;;
18822;SDS011;9540;51.550;7.980;2023-03-14T02:27:10;4.63;;;1.00;;
18822;SDS011;9540;51.550;7.980;2023-03-14T02:29:39;2.88;;;1.00;;
18822;SDS011;9540;51.550;7.980;2023-03-14T02:45:42;10.82;;;1.45;;
18822;SDS011;9540;51.550;7.980;2023-03-14T02:48:12;5.18;;;1.08;;
18822;SDS011;9540;51.550;7.980;2023-03-14T02:50:43;7.30;;;1.52;;
18822;SDS011;9540;51.550;7.980;2023-03-14T02:53:13;5.20;;;1.50;;
18822;SDS011;9540;51.550;7.980;2023-03-14T02:55:44;2.50;;;1.50;;
18822;SDS011;9540;51.550;7.980;2023-03-14T02:58:12;4.68;;;1.70;;
18822;SDS011;9540;51.550;7.980;2023-03-14T03:00:39;3.30;;;1.45;;
18822;SDS011;9540;51.550;7.980;2023-03-14T03:03:08;6.32;;;1.15;;
18822;SDS011;9540;51.550;7.980;2023-03-14T03:05:36;4.00;;;1.30;;
18822;SDS011;9540;51.550;7.980;2023-03-14T03:08:03;6.78;;;1.60;;
18822;SDS011;9540;51.550;7.980;2023-03-14T03:10:31;2.85;;;1.30;;
18822;SDS011;9540;51.550;7.980;2023-03-14T03:12:58;8.80;;;1.98;;
18822;SDS011;9540;51.550;7.980;2023-03-14T03:15:25;6.18;;;1.30;;
18822;SDS011;9540;51.550;7.980;2023-03-14T03:17:54;7.75;;;1.55;;
18822;SDS011;9540;51.550;7.980;2023-03-14T03:20:21;3.65;;;1.35;;
18822;SDS011;9540;51.550;7.980;2023-03-14T03:22:48;6.07;;;1.58;;
18822;SDS011;9540;51.550;7.980;2023-03-14T03:25:15;4.85;;;1.55;;
18822;SDS011;9540;51.550;7.980;2023-03-14T03:27:43;4.75;;;1.20;;
18822;SDS011;9540;51.550;7.980;2023-03-14T03:30:10;5.05;;;1.20;;
18822;SDS011;9540;51.550;7.980;2023-03-14T03:32:37;3.38;;;1.08;;
18822;SDS011;9540;51.550;7.980;2023-03-14T03:35:06;7.00;;;1.60;;
18822;SDS011;9540;51.550;7.980;2023-03-14T03:37:34;2.95;;;1.00;;
18822;SDS011;9540;51.550;7.980;2023-03-14T03:40:02;2.47;;;1.17;;
18822;SDS011;9540;51.550;7.980;2023-03-14T03:42:31;6.07;;;1.50;;
18822;SDS011;9540;51.550;7.980;2023-03-14T03:44:58;6.88;;;1.67;;
18822;SDS011;9540;51.550;7.980;2023-03-14T03:47:25;7.72;;;1.65;;
18822;SDS011;9540;51.550;7.980;2023-03-14T03:49:52;9.02;;;1.90;;
18822;SDS011;9540;51.550;7.980;2023-03-14T03:52:21;5.63;;;1.48;;
18822;SDS011;9540;51.550;7.980;2023-03-14T03:54:48;10.50;;;2.95;;
18822;SDS011;9540;51.550;7.980;2023-03-14T03:57:15;5.40;;;1.80;;
18822;SDS011;9540;51.550;7.980;2023-03-14T03:59:42;10.55;;;1.88;;
18822;SDS011;9540;51.550;7.980;2023-03-14T04:02:09;3.33;;;1.85;;
18822;SDS011;9540;51.550;7.980;2023-03-14T04:04:37;3.63;;;1.45;;
18822;SDS011;9540;51.550;7.980;2023-03-14T04:07:04;4.38;;;1.73;;
18822;SDS011;9540;51.550;7.980;2023-03-14T04:09:33;6.68;;;1.75;;
18822;SDS011;9540;51.550;7.980;2023-03-14T04:12:00;6.32;;;2.08;;
18822;SDS011;9540;51.550;7.980;2023-03-14T04:14:27;9.13;;;1.40;;
18822;SDS011;9540;51.550;7.980;2023-03-14T04:16:54;4.85;;;2.03;;
18822;SDS011;9540;51.550;7.980;2023-03-14T04:19:21;3.53;;;1.67;;
18822;SDS011;9540;51.550;7.980;2023-03-14T04:21:48;5.45;;;1.65;;
18822;SDS011;9540;51.550;7.980;2023-03-14T04:24:15;6.95;;;1.70;;
18822;SDS011;9540;51.550;7.980;2023-03-14T04:26:44;5.50;;;1.98;;
18822;SDS011;9540;51.550;7.980;2023-03-14T04:29:11;8.65;;;1.75;;
18822;SDS011;9540;51.550;7.980;2023-03-14T04:31:38;6.63;;;2.05;;
18822;SDS011;9540;51.550;7.980;2023-03-14T04:34:05;6.03;;;1.85;;
18822;SDS011;9540;51.550;7.980;2023-03-14T04:36:32;8.82;;;1.80;;
18822;SDS011;9540;51.550;7.980;2023-03-14T04:38:59;8.75;;;2.25;;
18822;SDS011;9540;51.550;7.980;2023-03-14T04:41:27;6.90;;;2.03;;
18822;SDS011;9540;51.550;7.980;2023-03-14T04:43:55;3.90;;;1.85;;
18822;SDS011;9540;51.550;7.980;2023-03-14T04:46:23;8.35;;;2.38;;
18822;SDS011;9540;51.550;7.980;2023-03-14T04:48:50;10.05;;;2.10;;
18822;SDS011;9540;51.550;7.980;2023-03-14T04:51:17;5.75;;;1.60;;
18822;SDS011;9540;51.550;7.980;2023-03-14T04:53:44;8.48;;;2.10;;
18822;SDS011;9540;51.550;7.980;2023-03-14T04:56:11;9.73;;;2.05;;
18822;SDS011;9540;51.550;7.980;2023-03-14T04:58:38;8.90;;;1.65;;
18822;SDS011;9540;51.550;7.980;2023-03-14T05:01:07;8.65;;;1.83;;
18822;SDS011;9540;51.550;7.980;2023-03-14T05:03:34;10.25;;;1.65;;
18822;SDS011;9540;51.550;7.980;2023-03-14T05:06:03;4.30;;;1.67;;
18822;SDS011;9540;51.550;7.980;2023-03-14T05:08:30;7.72;;;2.25;;
18822;SDS011;9540;51.550;7.980;2023-03-14T05:10:58;7.22;;;2.20;;
18822;SDS011;9540;51.550;7.980;2023-03-14T05:13:25;12.88;;;2.42;;
18822;SDS011;9540;51.550;7.980;2023-03-14T05:15:52;5.13;;;1.95;;
18822;SDS011;9540;51.550;7.980;2023-03-14T05:18:21;14.15;;;2.28;;
18822;SDS011;9540;51.550;7.980;2023-03-14T05:20:50;15.20;;;1.98;;
18822;SDS011;9540;51.550;7.980;2023-03-14T05:23:17;11.40;;;2.38;;
18822;SDS011;9540;51.550;7.980;2023-03-14T05:25:44;10.07;;;2.35;;
18822;SDS011;9540;51.550;7.980;2023-03-14T05:28:11;7.45;;;2.25;;
18822;SDS011;9540;51.550;7.980;2023-03-14T05:30:38;16.45;;;2.45;;
18822;SDS011;9540;51.550;7.980;2023-03-14T05:33:06;7.50;;;2.50;;
18822;SDS011;9540;51.550;7.980;2023-03-14T05:35:34;11.88;;;2.42;;
18822;SDS011;9540;51.550;7.980;2023-03-14T05:38:01;9.50;;;1.95;;
18822;SDS011;9540;51.550;7.980;2023-03-14T05:40:28;12.48;;;2.88;;
18822;SDS011;9540;51.550;7.980;2023-03-14T05:42:55;10.32;;;2.47;;
18822;SDS011;9540;51.550;7.980;2023-03-14T05:45:23;9.48;;;2.28;;
18822;SDS011;9540;51.550;7.980;2023-03-14T05:47:50;15.50;;;2.88;;
18822;SDS011;9540;51.550;7.980;2023-03-14T05:50:17;9.05;;;2.22;;
18822;SDS011;9540;51.550;7.980;2023-03-14T05:52:45;14.65;;;2.55;;
18822;SDS011;9540;51.550;7.980;2023-03-14T05:55:12;9.25;;;2.60;;
18822;SDS011;9540;51.550;7.980;2023-03-14T05:57:39;9.50;;;2.33;;
18822;SDS011;9540;51.550;7.980;2023-03-14T06:00:07;9.10;;;2.38;;
18822;SDS011;9540;51.550;7.980;2023-03-14T06:02:35;3.90;;;1.80;;
18822;SDS011;9540;51.550;7.980;2023-03-14T06:05:05;39.75;;;12.93;;
18822;SDS011;9540;51.550;7.980;2023-03-14T06:07:34;35.85;;;11.38;;
18822;SDS011;9540;51.550;7.980;2023-03-14T06:10:03;9.93;;;3.88;;
18822;SDS011;9540;51.550;7.980;2023-03-14T06:12:31;9.95;;;2.42;;
18822;SDS011;9540;51.550;7.980;2023-03-14T06:14:58;4.93;;;1.67;;
18822;SDS011;9540;51.550;7.980;2023-03-14T06:17:25;8.93;;;2.80;;
18822;SDS011;9540;51.550;7.980;2023-03-14T06:19:52;4.75;;;2.42;;
18822;SDS011;9540;51.550;7.980;2023-03-14T06:22:19;12.48;;;2.38;;
18822;SDS011;9540;51.550;7.980;2023-03-14T06:24:46;4.07;;;1.40;;
18822;SDS011;9540;51.550;7.980;2023-03-14T06:27:15;4.85;;;1.58;;
18822;SDS011;9540;51.550;7.980;2023-03-14T06:29:42;4.13;;;1.23;;
18822;SDS011;9540;51.550;7.980;2023-03-14T06:32:09;6.78;;;1.48;;
18822;SDS011;9540;51.550;7.980;2023-03-14T06:34:36;5.60;;;1.42;;
18822;SDS011;9540;51.550;7.980;2023-03-14T06:37:04;5.72;;;1.60;;
18822;SDS011;9540;51.550;7.980;2023-03-14T06:39:31;7.80;;;1.58;;
18822;SDS011;9540;51.550;7.980;2023-03-14T06:41:59;1.25;;;1.02;;
18822;SDS011;9540;51.550;7.980;2023-03-14T06:44:27;3.63;;;1.40;;
18822;SDS011;9540;51.550;7.980;2023-03-14T06:46:54;4.90;;;1.33;;
18822;SDS011;9540;51.550;7.980;2023-03-14T06:49:22;1.40;;;1.10;;
18822;SDS011;9540;51.550;7.980;2023-03-14T06:51:49;2.08;;;0.80;;
18822;SDS011;9540;51.550;7.980;2023-03-14T06:54:16;3.45;;;1.00;;
18822;SDS011;9540;51.550;7.980;2023-03-14T06:56:43;3.30;;;1.00;;
18822;SDS011;9540;51.550;7.980;2023-03-14T06:59:10;1.55;;;0.95;;
18822;SDS011;9540;51.550;7.980;2023-03-14T07:01:39;2.63;;;0.90;;
18822;SDS011;9540;51.550;7.980;2023-03-14T07:04:08;3.72;;;0.73;;
18822;SDS011;9540;51.550;7.980;2023-03-14T07:06:35;0.98;;;0.65;;
18822;SDS011;9540;51.550;7.980;2023-03-14T07:09:04;0.75;;;0.70;;
18822;SDS011;9540;51.550;7.980;2023-03-14T07:11:31;1.15;;;0.68;;
18822;SDS011;9540;51.550;7.980;2023-03-14T07:13:59;0.50;;;0.50;;
18822;SDS011;9540;51.550;7.980;2023-03-14T07:16:26;1.08;;;1.02;;
18822;SDS011;9540;51.550;7.980;2023-03-14T07:18:57;0.82;;;0.73;;
18822;SDS011;9540;51.550;7.980;2023-03-14T07:21:25;1.95;;;0.68;;
18822;SDS011;9540;51.550;7.980;2023-03-14T07:23:52;1.10;;;0.63;;
18822;SDS011;9540;51.550;7.980;2023-03-14T07:26:19;0.60;;;0.60;;
18822;SDS011;9540;51.550;7.980;2023-03-14T07:28:46;0.70;;;0.70;;
18822;SDS011;9540;51.550;7.980;2023-03-14T07:31:14;0.52;;;0.52;;
18822;SDS011;9540;51.550;7.980;2023-03-14T07:33:41;1.45;;;0.75;;
18822;SDS011;9540;51.550;7.980;2023-03-14T07:36:09;0.70;;;0.70;;
18822;SDS011;9540;51.550;7.980;2023-03-14T07:38:37;2.97;;;0.70;;
18822;SDS011;9540;51.550;7.980;2023-03-14T07:41:04;0.82;;;0.68;;
18822;SDS011;9540;51.550;7.980;2023-03-14T07:43:32;0.93;;;0.52;;
18822;SDS011;9540;51.550;7.980;2023-03-14T07:45:59;0.70;;;0.70;;
18822;SDS011;9540;51.550;7.980;2023-03-14T07:48:27;2.05;;;0.50;;
18822;SDS011;9540;51.550;7.980;2023-03-14T07:50:54;0.60;;;0.60;;
18822;SDS011;9540;51.550;7.980;2023-03-14T07:53:24;0.50;;;0.50;;
18822;SDS011;9540;51.550;7.980;2023-03-14T07:55:51;1.17;;;0.55;;
18822;SDS011;9540;51.550;7.980;2023-03-14T07:58:19;0.50;;;0.50;;
18822;SDS011;9540;51.550;7.980;2023-03-14T08:00:48;2.60;;;0.77;;
18822;SDS011;9540;51.550;7.980;2023-03-14T08:03:15;3.47;;;1.27;;
18822;SDS011;9540;51.550;7.980;2023-03-14T08:05:43;0.55;;;0.55;;
18822;SDS011;9540;51.550;7.980;2023-03-14T08:08:14;0.70;;;0.70;;
18822;SDS011;9540;51.550;7.980;2023-03-14T08:10:43;0.60;;;0.60;;
18822;SDS011;9540;51.550;7.980;2023-03-14T08:13:11;0.47;;;0.47;;
18822;SDS011;9540;51.550;7.980;2023-03-14T08:15:39;1.17;;;0.45;;
18822;SDS011;9540;51.550;7.980;2023-03-14T08:18:06;0.93;;;0.60;;
18822;SDS011;9540;51.550;7.980;2023-03-14T08:20:33;0.50;;;0.50;;
18822;SDS011;9540;51.550;7.980;2023-03-14T08:23:02;0.60;;;0.60;;
18822;SDS011;9540;51.550;7.980;2023-03-14T08:25:29;0.60;;;0.60;;
18822;SDS011;9540;51.550;7.980;2023-03-14T08:27:58;0.45;;;0.45;;
18822;SDS011;9540;51.550;7.980;2023-03-14T08:30:25;0.68;;;0.50;;
18822;SDS011;9540;51.550;7.980;2023-03-14T08:32:53;0.50;;;0.50;;
18822;SDS011;9540;51.550;7.980;2023-03-14T08:35:22;1.95;;;0.75;;
18822;SDS011;9540;51.550;7.980;2023-03-14T08:37:49;0.60;;;0.60;;
18822;SDS011;9540;51.550;7.980;2023-03-14T08:40:17;0.73;;;0.52;;
18822;SDS011;9540;51.550;7.980;2023-03-14T08:42:44;0.80;;;0.80;;
18822;SDS011;9540;51.550;7.980;2023-03-14T08:45:14;0.70;;;0.70;;
18822;SDS011;9540;51.550;7.980;2023-03-14T08:47:42;1.00;;;0.55;;
18822;SDS011;9540;51.550;7.980;2023-03-14T08:50:11;0.70;;;0.70;;
18822;SDS011;9540;51.550;7.980;2023-03-14T08:52:38;0.77;;;0.60;;
18822;SDS011;9540;51.550;7.980;2023-03-14T08:55:07;1.15;;;0.65;;
18822;SDS011;9540;51.550;7.980;2023-03-14T08:57:35;0.50;;;0.50;;
18822;SDS011;9540;51.550;7.980;2023-03-14T09:00:02;0.90;;;0.80;;
18822;SDS011;9540;51.550;7.980;2023-03-14T09:02:36;0.73;;;0.73;;
18822;SDS011;9540;51.550;7.980;2023-03-14T09:05:04;0.95;;;0.95;;
18822;SDS011;9540;51.550;7.980;2023-03-14T09:07:32;0.50;;;0.50;;
18822;SDS011;9540;51.550;7.980;2023-03-14T09:10:02;0.70;;;0.70;;
18822;SDS011;9540;51.550;7.980;2023-03-14T09:12:29;0.77;;;0.70;;
18822;SDS011;9540;51.550;7.980;2023-03-14T09:14:56;0.68;;;0.68;;
18822;SDS011;9540;51.550;7.980;2023-03-14T09:17:24;0.95;;;0.80;;
18822;SDS011;9540;51.550;7.980;2023-03-14T09:19:52;1.20;;;1.00;;
18822;SDS011;9540;51.550;7.980;2023-03-14T09:22:19;0.60;;;0.60;;
18822;SDS011;9540;51.550;7.980;2023-03-14T09:24:46;2.35;;;0.80;;
18822;SDS011;9540;51.550;7.980;2023-03-14T09:27:14;0.80;;;0.80;;
18822;SDS011;9540;51.550;7.980;2023-03-14T09:29:41;2.17;;;0.90;;
18822;SDS011;9540;51.550;7.980;2023-03-14T09:32:08;1.00;;;0.90;;
18822;SDS011;9540;51.550;7.980;2023-03-14T09:34:35;1.40;;;1.00;;
18822;SDS011;9540;51.550;7.980;2023-03-14T09:37:03;1.58;;;0.80;;
18822;SDS011;9540;51.550;7.980;2023-03-14T09:39:30;0.80;;;0.80;;
18822;SDS011;9540;51.550;7.980;2023-03-14T09:41:58;0.80;;;0.80;;
18822;SDS011;9540;51.550;7.980;2023-03-14T09:44:31;0.70;;;0.70;;
18822;SDS011;9540;51.550;7.980;2023-03-14T09:47:00;1.35;;;1.00;;
18822;SDS011;9540;51.550;7.980;2023-03-14T09:49:31;1.33;;;1.02;;
18822;SDS011;9540;51.550;7.980;2023-03-14T09:52:01;1.25;;;0.60;;
18822;SDS011;9540;51.550;7.980;2023-03-14T09:54:34;0.70;;;0.70;;
18822;SDS011;9540;51.550;7.980;2023-03-14T09:57:04;0.77;;;0.77;;
18822;SDS011;9540;51.550;7.980;2023-03-14T09:59:32;1.17;;;0.85;;
18822;SDS011;9540;51.550;7.980;2023-03-14T10:02:02;0.80;;;0.77;;
18822;SDS011;9540;51.550;7.980;2023-03-14T10:04:39;1.35;;;0.88;;
18822;SDS011;9540;51.550;7.980;2023-03-14T10:07:11;2.35;;;1.20;;
18822;SDS011;9540;51.550;7.980;2023-03-14T10:09:42;0.80;;;0.80;;
18822;SDS011;9540;51.550;7.980;2023-03-14T10:12:10;0.93;;;0.90;;
18822;SDS011;9540;51.550;7.980;2023-03-14T10:14:45;1.58;;;1.15;;
18822;SDS011;9540;51.550;7.980;2023-03-14T10:17:14;3.55;;;1.85;;
18822;SDS011;9540;51.550;7.980;2023-03-14T10:19:52;1.58;;;1.50;;
18822;SDS011;9540;51.550;7.980;2023-03-14T10:22:23;1.48;;;1.38;;
18822;SDS011;9540;51.550;7.980;2023-03-14T10:24:53;1.00;;;1.00;;
18822;SDS011;9540;51.550;7.980;2023-03-14T10:27:27;2.15;;;1.10;;
18822;SDS011;9540;51.550;7.980;2023-03-14T10:29:56;1.50;;;1.40;;
18822;SDS011;9540;51.550;7.980;2023-03-14T10:32:29;1.42;;;1.30;;
18822;SDS011;9540;51.550;7.980;2023-03-14T10:35:04;2.38;;;1.10;;
18822;SDS011;9540;51.550;7.980;2023-03-14T10:37:36;1.45;;;1.35;;
18822;SDS011;9540;51.550;7.980;2023-03-14T10:40:16;5.43;;;1.73;;
18822;SDS011;9540;51.550;7.980;2023-03-14T10:42:45;1.90;;;1.80;;
18822;SDS011;9540;51.550;7.980;2023-03-14T10:48:05;2.25;;;1.63;;
18822;SDS011;9540;51.550;7.980;2023-03-14T10:50:47;3.00;;;2.03;;
18822;SDS011;9540;51.550;7.980;2023-03-14T10:53:17;0.95;;;0.93;;
18822;SDS011;9540;51.550;7.980;2023-03-14T10:55:44;0.70;;;0.70;;
18822;SDS011;9540;51.550;7.980;2023-03-14T10:58:19;1.10;;;1.10;;
18822;SDS011;9540;51.550;7.980;2023-03-14T11:00:50;1.20;;;0.70;;
18822;SDS011;9540;51.550;7.980;2023-03-14T11:03:24;1.20;;;1.17;;
18822;SDS011;9540;51.550;7.980;2023-03-14T11:05:56;1.13;;;1.02;;
18822;SDS011;9540;51.550;7.980;2023-03-14T11:08:30;1.05;;;1.05;;
18822;SDS011;9540;51.550;7.980;2023-03-14T11:11:06;1.63;;;1.53;;
18822;SDS011;9540;51.550;7.980;2023-03-14T11:13:41;1.90;;;1.77;;
18822;SDS011;9540;51.550;7.980;2023-03-14T11:16:20;1.55;;;1.45;;
18822;SDS011;9540;51.550;7.980;2023-03-14T11:19:01;3.80;;;1.27;;
18822;SDS011;9540;51.550;7.980;2023-03-14T11:21:37;4.00;;;1.27;;
18822;SDS011;9540;51.550;7.980;2023-03-14T11:24:21;2.97;;;1.33;;
18822;SDS011;9540;51.550;7.980;2023-03-14T11:27:06;4.37;;;1.70;;
18822;SDS011;9540;51.550;7.980;2023-03-14T11:29:39;2.70;;;1.70;;
18822;SDS011;9540;51.550;7.980;2023-03-14T11:32:12;2.50;;;0.97;;
18822;SDS011;9540;51.550;7.980;2023-03-14T11:34:44;1.13;;;1.00;;
18822;SDS011;9540;51.550;7.980;2023-03-14T11:37:20;0.97;;;0.97;;
18822;SDS011;9540;51.550;7.980;2023-03-14T11:39:56;0.90;;;0.90;;
18822;SDS011;9540;51.550;7.980;2023-03-14T11:42:28;1.43;;;1.20;;
18822;SDS011;9540;51.550;7.980;2023-03-14T11:44:57;0.97;;;0.97;;
18822;SDS011;9540;51.550;7.980;2023-03-14T11:47:26;1.10;;;1.10;;
18822;SDS011;9540;51.550;7.980;2023-03-14T11:50:00;1.43;;;1.40;;
18822;SDS011;9540;51.550;7.980;2023-03-14T11:52:34;1.60;;;1.40;;
18822;SDS011;9540;51.550;7.980;2023-03-14T11:55:10;2.40;;;1.60;;
18822;SDS011;9540;51.550;7.980;2023-03-14T11:57:43;1.30;;;1.20;;
18822;SDS011;9540;51.550;7.980;2023-03-14T12:00:13;1.77;;;1.63;;
18822;SDS011;9540;51.550;7.980;2023-03-14T12:02:46;2.10;;;1.40;;
18822;SDS011;9540;51.550;7.980;2023-03-14T12:08:19;2.90;;;1.63;;
18822;SDS011;9540;51.550;7.980;2023-03-14T12:11:03;2.50;;;1.13;;
18822;SDS011;9540;51.550;7.980;2023-03-14T12:13:36;2.80;;;1.10;;
18822;SDS011;9540;51.550;7.980;2023-03-14T12:16:05;1.93;;;1.07;;
18822;SDS011;9540;51.550;7.980;2023-03-14T12:18:34;2.77;;;1.20;;
18822;SDS011;9540;51.550;7.980;2023-03-14T12:21:05;2.10;;;1.33;;
18822;SDS011;9540;51.550;7.980;2023-03-14T12:23:35;7.07;;;1.37;;
18822;SDS011;9540;51.550;7.980;2023-03-14T12:26:12;7.57;;;2.33;;
18822;SDS011;9540;51.550;7.980;2023-03-14T12:28:43;3.97;;;1.30;;
18822;SDS011;9540;51.550;7.980;2023-03-14T12:34:04;3.90;;;1.97;;
18822;SDS011;9540;51.550;7.980;2023-03-14T12:36:58;6.03;;;1.20;;
18822;SDS011;9540;51.550;7.980;2023-03-14T12:39:51;3.40;;;1.60;;
18822;SDS011;9540;51.550;7.980;2023-03-14T12:42:51;5.73;;;1.43;;
18822;SDS011;9540;51.550;7.980;2023-03-14T12:45:28;2.73;;;2.13;;
18822;SDS011;9540;51.550;7.980;2023-03-14T12:48:00;4.60;;;1.87;;
18822;SDS011;9540;51.550;7.980;2023-03-14T12:50:35;4.37;;;1.97;;
18822;SDS011;9540;51.550;7.980;2023-03-14T12:56:26;3.67;;;1.80;;
18822;SDS011;9540;51.550;7.980;2023-03-14T12:59:08;5.13;;;2.17;;
18822;SDS011;9540;51.550;7.980;2023-03-14T13:01:48;5.33;;;2.80;;
18822;SDS011;9540;51.550;7.980;2023-03-14T13:04:25;6.40;;;2.63;;
18822;SDS011;9540;51.550;7.980;2023-03-14T13:06:54;5.03;;;3.00;;
18822;SDS011;9540;51.550;7.980;2023-03-14T13:09:35;10.10;;;3.27;;
18822;SDS011;9540;51.550;7.980;2023-03-14T13:12:18;7.03;;;2.60;;
18822;SDS011;9540;51.550;7.980;2023-03-14T13:14:50;12.07;;;4.90;;
18822;SDS011;9540;51.550;7.980;2023-03-14T13:17:20;10.33;;;2.50;;
18822;SDS011;9540;51.550;7.980;2023-03-14T13:19:53;9.63;;;2.23;;
18822;SDS011;9540;51.550;7.980;2023-03-14T13:22:26;9.83;;;3.00;;
18822;SDS011;9540;51.550;7.980;2023-03-14T13:24:59;16.93;;;4.10;;
18822;SDS011;9540;51.550;7.980;2023-03-14T13:27:29;9.23;;;2.05;;
18822;SDS011;9540;51.550;7.980;2023-03-14T13:29:59;9.30;;;3.13;;
18822;SDS011;9540;51.550;7.980;2023-03-14T13:32:39;10.93;;;2.33;;
18822;SDS011;9540;51.550;7.980;2023-03-14T13:35:14;14.97;;;2.60;;
18822;SDS011;9540;51.550;7.980;2023-03-14T13:37:42;12.33;;;3.07;;
18822;SDS011;9540;51.550;7.980;2023-03-14T13:40:18;10.40;;;2.50;;
18822;SDS011;9540;51.550;7.980;2023-03-14T13:42:47;15.50;;;2.50;;
18822;SDS011;9540;51.550;7.980;2023-03-14T13:45:16;18.60;;;2.60;;
18822;SDS011;9540;51.550;7.980;2023-03-14T13:47:43;8.47;;;1.90;;
18822;SDS011;9540;51.550;7.980;2023-03-14T13:50:15;11.93;;;2.07;;
18822;SDS011;9540;51.550;7.980;2023-03-14T13:52:43;6.57;;;1.90;;
18822;SDS011;9540;51.550;7.980;2023-03-14T13:55:14;9.33;;;2.13;;
18822;SDS011;9540;51.550;7.980;2023-03-14T13:57:44;14.23;;;2.57;;
18822;SDS011;9540;51.550;7.980;2023-03-14T14:00:19;9.50;;;2.10;;
18822;SDS011;9540;51.550;7.980;2023-03-14T14:02:49;15.77;;;2.13;;
18822;SDS011;9540;51.550;7.980;2023-03-14T14:05:16;12.63;;;2.27;;
18822;SDS011;9540;51.550;7.980;2023-03-14T14:07:44;6.90;;;2.30;;
18822;SDS011;9540;51.550;7.980;2023-03-14T14:10:11;12.60;;;2.20;;
18822;SDS011;9540;51.550;7.980;2023-03-14T14:12:40;11.03;;;2.70;;
18822;SDS011;9540;51.550;7.980;2023-03-14T14:15:16;7.77;;;2.37;;
18822;SDS011;9540;51.550;7.980;2023-03-14T14:17:48;16.80;;;3.20;;
18822;SDS011;9540;51.550;7.980;2023-03-14T14:20:20;13.77;;;2.45;;
18822;SDS011;9540;51.550;7.980;2023-03-14T14:22:51;10.00;;;2.70;;
18822;SDS011;9540;51.550;7.980;2023-03-14T14:25:19;19.37;;;3.10;;
18822;SDS011;9540;51.550;7.980;2023-03-14T14:27:47;7.53;;;3.00;;
18822;SDS011;9540;51.550;7.980;2023-03-14T14:30:27;11.30;;;2.22;;
18822;SDS011;9540;51.550;7.980;2023-03-14T14:33:09;8.30;;;2.50;;
18822;SDS011;9540;51.550;7.980;2023-03-14T14:35:39;6.10;;;2.20;;
18822;SDS011;9540;51.550;7.980;2023-03-14T14:38:10;14.80;;;3.45;;
18822;SDS011;9540;51.550;7.980;2023-03-14T14:40:45;18.80;;;3.90;;
18822;SDS011;9540;51.550;7.980;2023-03-14T14:43:16;14.60;;;3.40;;
18822;SDS011;9540;51.550;7.980;2023-03-14T14:45:47;26.38;;;3.55;;
18822;SDS011;9540;51.550;7.980;2023-03-14T14:48:18;25.08;;;3.65;;
18822;SDS011;9540;51.550;7.980;2023-03-14T14:50:54;22.83;;;3.88;;
18822;SDS011;9540;51.550;7.980;2023-03-14T14:53:26;23.43;;;3.80;;
18822;SDS011;9540;51.550;7.980;2023-03-14T14:55:56;18.27;;;4.20;;
18822;SDS011;9540;51.550;7.980;2023-03-14T14:58:26;19.87;;;3.00;;
18822;SDS011;9540;51.550;7.980;2023-03-14T15:00:59;26.70;;;3.50;;
18822;SDS011;9540;51.550;7.980;2023-03-14T15:03:32;19.25;;;3.05;;
18822;SDS011;9540;51.550;7.980;2023-03-14T15:06:00;13.30;;;3.40;;
18822;SDS011;9540;51.550;7.980;2023-03-14T15:08:28;16.85;;;3.92;;
18822;SDS011;9540;51.550;7.980;2023-03-14T15:10:55;26.02;;;4.07;;
18822;SDS011;9540;51.550;7.980;2023-03-14T15:13:23;10.77;;;3.13;;
18822;SDS011;9540;51.550;7.980;2023-03-14T15:15:50;19.95;;;4.00;;
18822;SDS011;9540;51.550;7.980;2023-03-14T15:18:22;14.65;;;3.13;;
18822;SDS011;9540;51.550;7.980;2023-03-14T15:20:51;16.02;;;3.70;;
18822;SDS011;9540;51.550;7.980;2023-03-14T15:23:19;18.05;;;3.35;;
18822;SDS011;9540;51.550;7.980;2023-03-14T15:25:47;18.03;;;4.13;;
18822;SDS011;9540;51.550;7.980;2023-03-14T15:28:16;13.65;;;3.15;;
18822;SDS011;9540;51.550;7.980;2023-03-14T15:30:44;11.13;;;2.53;;
18822;SDS011;9540;51.550;7.980;2023-03-14T15:33:12;10.05;;;2.53;;
18822;SDS011;9540;51.550;7.980;2023-03-14T15:35:40;9.37;;;2.53;;
18822;SDS011;9540;51.550;7.980;2023-03-14T15:38:11;12.93;;;2.30;;
18822;SDS011;9540;51.550;7.980;2023-03-14T15:40:39;8.47;;;2.53;;